createdAt,value
2022-10-08T00:01:55.364Z,10.91
2022-10-08T00:04:48.638Z,10.90
2022-10-08T00:07:16.857Z,10.89
2022-10-08T00:09:44.893Z,10.89
2022-10-08T00:12:13.083Z,10.87
2022-10-08T00:14:41.143Z,10.81
2022-10-08T00:17:09.298Z,10.79
2022-10-08T00:19:37.323Z,10.76
2022-10-08T00:22:05.344Z,10.74
2022-10-08T00:24:33.393Z,10.72
2022-10-08T00:27:01.444Z,10.68
2022-10-08T00:29:30.029Z,10.66
2022-10-08T00:31:58.596Z,10.64
2022-10-08T00:34:27.219Z,10.62
2022-10-08T00:36:55.879Z,10.58
2022-10-08T00:39:25.011Z,10.57
2022-10-08T00:41:55.661Z,10.56
2022-10-08T00:45:02.414Z,10.54
2022-10-08T00:47:33.323Z,10.53
2022-10-08T00:50:16.501Z,10.52
2022-10-08T00:52:52.542Z,10.49
2022-10-08T00:55:24.117Z,10.48
2022-10-08T00:57:52.955Z,10.45
2022-10-08T01:00:25.521Z,10.43
2022-10-08T01:02:54.424Z,10.40
2022-10-08T01:05:44.591Z,10.34
2022-10-08T01:08:18.772Z,10.27
2022-10-08T01:11:07.067Z,10.20
2022-10-08T01:14:00.457Z,10.13
2022-10-08T01:16:57.422Z,10.07
2022-10-08T01:19:59.879Z,9.98
2022-10-08T01:22:31.033Z,9.91
2022-10-08T01:25:35.550Z,9.84
2022-10-08T01:28:10.116Z,9.77
2022-10-08T01:30:47.415Z,9.72
2022-10-08T01:33:55.358Z,9.68
2022-10-08T01:36:25.194Z,9.60
2022-10-08T01:39:04.268Z,9.54
2022-10-08T01:41:33.721Z,9.49
2022-10-08T01:44:15.373Z,9.43
2022-10-08T01:46:47.977Z,9.39
2022-10-08T01:49:25.716Z,9.35
2022-10-08T01:52:04.331Z,9.31
2022-10-08T01:54:34.473Z,9.27
2022-10-08T01:57:05.819Z,9.23
2022-10-08T01:59:51.325Z,9.19
2022-10-08T02:02:25.468Z,9.16
2022-10-08T02:04:56.978Z,9.09
2022-10-08T02:07:31.656Z,9.03
2022-10-08T02:10:05.685Z,9.01
2022-10-08T02:12:34.540Z,8.98
2022-10-08T02:15:04.604Z,8.95
2022-10-08T02:18:08.550Z,8.92
2022-10-08T02:20:55.851Z,8.85
2022-10-08T02:23:29.860Z,8.76
2022-10-08T02:26:00.983Z,8.72
2022-10-08T02:28:46.431Z,8.68
2022-10-08T02:31:48.390Z,8.65
2022-10-08T02:34:28.227Z,8.61
2022-10-08T02:37:19.547Z,8.60
2022-10-08T02:39:54.984Z,8.56
2022-10-08T02:42:27.653Z,8.54
2022-10-08T02:45:07.625Z,8.50
2022-10-08T02:47:38.590Z,8.45
2022-10-08T02:50:14.286Z,8.43
2022-10-08T02:52:45.343Z,8.43
2022-10-08T02:55:44.769Z,8.43
2022-10-08T02:58:13.963Z,8.43
2022-10-08T03:00:55.243Z,8.41
2022-10-08T03:03:32.228Z,8.38
2022-10-08T03:06:06.297Z,8.36
2022-10-08T03:08:38.708Z,8.34
2022-10-08T03:11:07.583Z,8.30
2022-10-08T03:13:40.603Z,8.26
2022-10-08T03:16:13.525Z,8.22
2022-10-08T03:18:42.860Z,8.18
2022-10-08T03:21:14.506Z,8.13
2022-10-08T03:23:42.593Z,8.11
2022-10-08T03:26:10.617Z,8.08
2022-10-08T03:28:38.689Z,8.06
2022-10-08T03:31:06.991Z,8.04
2022-10-08T03:33:35.155Z,8.02
2022-10-08T03:36:03.832Z,8.00
2022-10-08T03:38:34.571Z,7.98
2022-10-08T03:41:02.832Z,7.97
2022-10-08T03:43:33.607Z,7.95
2022-10-08T03:46:02.674Z,7.94
2022-10-08T03:48:31.616Z,7.92
2022-10-08T03:51:07.815Z,7.90
2022-10-08T03:53:38.822Z,7.88
2022-10-08T03:56:14.789Z,7.86
2022-10-08T03:58:43.263Z,7.84
2022-10-08T04:01:15.435Z,7.81
2022-10-08T04:03:45.496Z,7.78
2022-10-08T04:06:14.324Z,7.75
2022-10-08T04:08:42.487Z,7.74
2022-10-08T04:11:19.228Z,7.73
2022-10-08T04:13:47.568Z,7.71
2022-10-08T04:16:18.740Z,7.69
2022-10-08T04:18:48.119Z,7.68
2022-10-08T04:21:18.613Z,7.66
2022-10-08T04:23:47.255Z,7.64
2022-10-08T04:26:15.800Z,7.63
2022-10-08T04:28:45.187Z,7.60
2022-10-08T04:31:18.453Z,7.55
2022-10-08T04:33:47.680Z,7.55
2022-10-08T04:36:24.646Z,7.66
2022-10-08T04:38:53.099Z,7.72
2022-10-08T04:41:27.032Z,7.76
2022-10-08T04:44:01.180Z,7.80
2022-10-08T04:46:30.424Z,7.85
2022-10-08T04:48:59.421Z,7.88
2022-10-08T04:51:28.018Z,7.91
2022-10-08T04:53:57.805Z,7.95
2022-10-08T04:56:29.435Z,7.98
2022-10-08T04:58:59.703Z,8.03
2022-10-08T05:01:29.610Z,8.06
2022-10-08T05:03:59.718Z,8.09
2022-10-08T05:06:31.150Z,8.13
2022-10-08T05:09:03.290Z,8.16
2022-10-08T05:11:33.016Z,8.21
2022-10-08T05:14:02.840Z,8.25
2022-10-08T05:16:31.472Z,8.31
2022-10-08T05:18:59.685Z,8.38
2022-10-08T05:21:30.785Z,8.45
2022-10-08T05:24:02.494Z,8.56
2022-10-08T05:26:56.838Z,8.65
2022-10-08T05:29:23.750Z,8.78
2022-10-08T05:31:51.827Z,8.89
2022-10-08T05:34:20.072Z,9.00
2022-10-08T05:36:48.193Z,9.12
2022-10-08T05:39:17.027Z,9.22
2022-10-08T05:41:45.131Z,9.30
2022-10-08T05:44:13.720Z,9.40
2022-10-08T05:46:41.850Z,9.48
2022-10-08T05:49:19.576Z,9.56
2022-10-08T05:51:49.137Z,9.66
2022-10-08T05:54:19.004Z,9.76
2022-10-08T05:56:47.116Z,9.81
2022-10-08T05:59:24.432Z,9.87
2022-10-08T06:01:52.499Z,9.92
2022-10-08T06:04:21.162Z,9.99
2022-10-08T06:06:49.285Z,10.10
2022-10-08T06:09:20.697Z,10.19
2022-10-08T06:11:49.611Z,10.30
2022-10-08T06:14:20.415Z,10.43
2022-10-08T06:16:48.587Z,10.53
2022-10-08T06:19:16.765Z,10.62
2022-10-08T06:21:44.909Z,10.73
2022-10-08T06:24:13.141Z,10.83
2022-10-08T06:26:43.893Z,10.93
2022-10-08T06:29:15.799Z,11.04
2022-10-08T06:31:45.500Z,11.11
2022-10-08T06:34:14.840Z,11.18
2022-10-08T06:36:42.894Z,11.21
2022-10-08T06:39:14.716Z,11.25
2022-10-08T06:41:43.028Z,11.31
2022-10-08T06:44:14.525Z,11.37
2022-10-08T06:46:43.166Z,11.45
2022-10-08T06:49:12.360Z,11.54
2022-10-08T06:51:40.648Z,11.60
2022-10-08T06:54:08.950Z,11.63
2022-10-08T06:56:38.890Z,11.64
2022-10-08T06:59:08.629Z,11.66
2022-10-08T07:01:37.346Z,11.68
2022-10-08T07:04:07.082Z,11.70
2022-10-08T07:06:35.631Z,11.71
2022-10-08T07:09:05.241Z,11.70
2022-10-08T07:11:34.995Z,11.70
2022-10-08T07:14:03.224Z,11.69
2022-10-08T07:16:31.754Z,11.71
2022-10-08T07:19:00.093Z,11.73
2022-10-08T07:21:29.569Z,11.75
2022-10-08T07:24:01.112Z,11.76
2022-10-08T07:26:34.291Z,11.77
2022-10-08T07:29:12.000Z,11.77
2022-10-08T07:31:41.080Z,11.77
2022-10-08T07:34:13.342Z,11.77
2022-10-08T07:36:41.973Z,11.77
2022-10-08T07:39:15.777Z,11.77
2022-10-08T07:41:43.823Z,11.77
2022-10-08T07:44:13.131Z,11.76
2022-10-08T07:46:50.660Z,11.76
2022-10-08T07:49:19.737Z,11.78
2022-10-08T07:51:48.346Z,11.80
2022-10-08T07:54:19.445Z,11.80
2022-10-08T07:56:48.015Z,11.79
2022-10-08T07:59:16.332Z,11.80
2022-10-08T08:01:44.947Z,11.82
2022-10-08T08:04:13.249Z,11.85
2022-10-08T08:06:45.093Z,11.87
2022-10-08T08:09:14.442Z,11.89
2022-10-08T08:11:42.558Z,11.91
2022-10-08T08:14:10.636Z,11.93
2022-10-08T08:16:39.525Z,11.95
2022-10-08T08:19:08.248Z,12.00
2022-10-08T08:21:38.566Z,12.04
2022-10-08T08:24:11.083Z,12.07
2022-10-08T08:26:41.532Z,12.08
2022-10-08T08:29:18.490Z,12.10
2022-10-08T08:31:49.799Z,12.17
2022-10-08T08:34:22.334Z,12.21
2022-10-08T08:36:53.873Z,12.24
2022-10-08T08:39:25.476Z,12.28
2022-10-08T08:42:05.669Z,12.33
2022-10-08T08:45:28.225Z,12.41
2022-10-08T08:48:12.961Z,12.52
2022-10-08T08:50:47.933Z,12.63
2022-10-08T08:53:18.496Z,12.76
2022-10-08T08:55:50.514Z,12.92
2022-10-08T08:58:42.736Z,13.08
2022-10-08T09:01:19.516Z,13.21
2022-10-08T09:03:58.729Z,13.34
2022-10-08T09:06:28.984Z,13.50
2022-10-08T09:09:19.445Z,13.66
2022-10-08T09:11:48.094Z,13.83
2022-10-08T09:14:34.775Z,13.95
2022-10-08T09:17:15.884Z,14.07
2022-10-08T09:19:44.096Z,14.17
2022-10-08T09:22:22.253Z,14.28
2022-10-08T09:24:57.048Z,14.39
2022-10-08T09:27:25.261Z,14.54
2022-10-08T09:29:53.416Z,14.69
2022-10-08T09:32:22.022Z,14.82
2022-10-08T09:34:50.325Z,14.91
2022-10-08T09:37:25.200Z,15.02
2022-10-08T09:40:27.747Z,15.13
2022-10-08T09:43:17.411Z,15.21
2022-10-08T09:45:50.070Z,15.32
2022-10-08T09:48:26.658Z,15.48
2022-10-08T09:51:21.045Z,15.58
2022-10-08T09:53:54.411Z,15.65
2022-10-08T09:56:28.060Z,15.71
2022-10-08T09:59:03.886Z,15.79
2022-10-08T10:01:32.927Z,15.84
2022-10-08T10:04:04.004Z,15.89
2022-10-08T10:06:40.638Z,15.96
2022-10-08T10:09:11.597Z,16.03
2022-10-08T10:11:49.501Z,16.10
2022-10-08T10:14:26.911Z,16.17
2022-10-08T10:17:10.007Z,16.23
2022-10-08T10:19:51.767Z,16.30
2022-10-08T10:22:42.090Z,16.37
2022-10-08T10:25:34.177Z,16.39
2022-10-08T10:28:19.997Z,16.39
2022-10-08T10:30:58.440Z,16.40
2022-10-08T10:33:32.381Z,16.44
2022-10-08T10:36:12.583Z,16.43
2022-10-08T10:38:52.326Z,16.43
2022-10-08T10:41:37.399Z,16.43
2022-10-08T10:44:14.408Z,16.44
2022-10-08T10:46:54.485Z,16.45
2022-10-08T10:49:29.613Z,16.44
2022-10-08T10:52:37.979Z,16.42
2022-10-08T10:55:31.205Z,16.46
2022-10-08T10:58:16.992Z,16.49
2022-10-08T11:00:57.938Z,16.50
2022-10-08T11:04:20.187Z,16.52
2022-10-08T11:07:01.497Z,16.53
2022-10-08T11:09:50.599Z,16.55
2022-10-08T11:12:39.175Z,16.56
2022-10-08T11:15:29.992Z,16.57
2022-10-08T11:18:16.545Z,16.61
2022-10-08T11:20:57.830Z,16.67
2022-10-08T11:23:44.032Z,16.70
2022-10-08T11:26:23.180Z,16.71
2022-10-08T11:29:28.224Z,16.72
2022-10-08T11:31:56.988Z,16.76
2022-10-08T11:34:34.792Z,16.80
2022-10-08T11:37:14.750Z,16.84
2022-10-08T11:40:12.103Z,16.88
2022-10-08T11:43:02.224Z,16.93
2022-10-08T11:45:38.221Z,16.99
2022-10-08T11:48:33.223Z,17.02
2022-10-08T11:51:19.736Z,17.07
2022-10-08T11:54:23.150Z,17.11
2022-10-08T11:57:13.016Z,17.14
2022-10-08T11:59:48.289Z,17.13
2022-10-08T12:02:25.186Z,17.12
2022-10-08T12:04:56.021Z,17.12
2022-10-08T12:07:34.724Z,17.14
2022-10-08T12:10:05.790Z,17.16
2022-10-08T12:13:02.699Z,17.17
2022-10-08T12:15:33.426Z,17.21
2022-10-08T12:18:02.220Z,17.25
2022-10-08T12:20:34.848Z,17.26
2022-10-08T12:23:09.335Z,17.28
2022-10-08T12:26:00.360Z,17.30
2022-10-08T12:28:28.413Z,17.35
2022-10-08T12:31:02.414Z,17.38
2022-10-08T12:33:30.837Z,17.43
2022-10-08T12:36:07.297Z,17.48
2022-10-08T12:38:35.233Z,17.53
2022-10-08T12:41:28.374Z,17.56
2022-10-08T12:44:09.605Z,17.56
2022-10-08T12:46:56.512Z,17.59
2022-10-08T12:49:43.173Z,17.65
2022-10-08T12:52:21.077Z,17.68
2022-10-08T12:54:54.107Z,17.71
2022-10-08T12:57:37.846Z,17.72
2022-10-08T13:00:24.514Z,17.74
2022-10-08T13:03:04.949Z,17.77
2022-10-08T13:05:40.032Z,17.81
2022-10-08T13:08:27.731Z,17.88
2022-10-08T13:10:57.957Z,17.92
2022-10-08T13:13:49.021Z,17.94
2022-10-08T13:16:24.011Z,17.98
2022-10-08T13:18:57.456Z,17.97
2022-10-08T13:21:31.728Z,17.96
2022-10-08T13:24:26.959Z,17.95
2022-10-08T13:26:56.259Z,17.95
2022-10-08T13:29:24.323Z,17.96
2022-10-08T13:32:13.964Z,17.97
2022-10-08T13:35:22.949Z,17.99
2022-10-08T13:37:54.293Z,17.99
2022-10-08T13:40:24.257Z,17.99
2022-10-08T13:42:58.873Z,18.00
2022-10-08T13:45:36.584Z,18.01
2022-10-08T13:48:11.599Z,18.02
2022-10-08T13:50:50.107Z,18.04
2022-10-08T13:53:22.953Z,18.04
2022-10-08T13:55:51.405Z,18.05
2022-10-08T13:58:20.772Z,18.05
2022-10-08T14:00:49.246Z,18.06
2022-10-08T14:03:17.512Z,18.06
2022-10-08T14:05:48.067Z,18.05
2022-10-08T14:08:25.546Z,18.05
2022-10-08T14:10:57.972Z,18.04
2022-10-08T14:13:26.633Z,18.04
2022-10-08T14:15:54.747Z,18.03
2022-10-08T14:18:23.234Z,18.03
2022-10-08T14:20:51.724Z,18.04
2022-10-08T14:23:21.029Z,18.03
2022-10-08T14:25:49.637Z,18.02
2022-10-08T14:28:17.722Z,18.01
2022-10-08T14:30:45.765Z,17.99
2022-10-08T14:33:13.756Z,17.98
2022-10-08T14:35:41.806Z,17.97
2022-10-08T14:38:09.922Z,17.96
2022-10-08T14:40:38.962Z,17.95
2022-10-08T14:43:07.072Z,17.93
2022-10-08T14:45:35.107Z,17.91
2022-10-08T14:48:03.473Z,17.88
2022-10-08T14:50:31.570Z,17.86
2022-10-08T14:52:59.588Z,17.82
2022-10-08T14:55:27.641Z,17.79
2022-10-08T14:57:55.642Z,17.76
2022-10-08T15:00:23.703Z,17.74
2022-10-08T15:02:51.880Z,17.71
2022-10-08T15:05:19.910Z,17.68
2022-10-08T15:07:48.286Z,17.64
2022-10-08T15:10:16.545Z,17.61
2022-10-08T15:12:45.375Z,17.57
2022-10-08T15:15:13.778Z,17.53
2022-10-08T15:17:41.812Z,17.49
2022-10-08T15:20:10.001Z,17.46
2022-10-08T15:22:38.184Z,17.42
2022-10-08T15:25:06.958Z,17.38
2022-10-08T15:27:35.068Z,17.34
2022-10-08T15:30:03.767Z,17.30
2022-10-08T15:32:31.835Z,17.26
2022-10-08T15:34:59.828Z,17.22
2022-10-08T15:37:27.881Z,17.18
2022-10-08T15:39:55.928Z,17.13
2022-10-08T15:42:23.959Z,17.08
2022-10-08T15:44:52.029Z,17.03
2022-10-08T15:47:20.123Z,16.98
2022-10-08T15:49:48.180Z,16.93
2022-10-08T15:52:19.516Z,16.88
2022-10-08T15:54:48.304Z,16.83
2022-10-08T15:57:18.481Z,16.77
2022-10-08T15:59:46.828Z,16.72
2022-10-08T16:02:17.667Z,16.67
2022-10-08T16:04:47.690Z,16.61
2022-10-08T16:07:16.966Z,16.55
2022-10-08T16:09:45.268Z,16.50
2022-10-08T16:12:13.399Z,16.45
2022-10-08T16:14:41.501Z,16.40
2022-10-08T16:17:09.637Z,16.33
2022-10-08T16:19:37.808Z,16.26
2022-10-08T16:22:06.646Z,16.19
2022-10-08T16:24:34.715Z,16.10
2022-10-08T16:27:02.757Z,16.01
2022-10-08T16:29:30.793Z,15.94
2022-10-08T16:31:58.872Z,15.86
2022-10-08T16:34:28.504Z,15.78
2022-10-08T16:36:59.282Z,15.71
2022-10-08T16:39:27.876Z,15.62
2022-10-08T16:41:56.076Z,15.53
2022-10-08T16:44:24.195Z,15.47
2022-10-08T16:46:52.847Z,15.42
2022-10-08T16:49:29.253Z,15.37
2022-10-08T16:52:05.173Z,15.33
2022-10-08T16:54:33.368Z,15.28
2022-10-08T16:57:01.663Z,15.25
2022-10-08T16:59:30.693Z,15.22
2022-10-08T17:02:00.080Z,15.18
2022-10-08T17:04:30.165Z,15.14
2022-10-08T17:06:58.292Z,15.10
2022-10-08T17:09:26.427Z,15.07
2022-10-08T17:11:54.802Z,15.06
2022-10-08T17:14:22.823Z,15.02
2022-10-08T17:16:50.900Z,14.99
2022-10-08T17:19:19.658Z,14.97
2022-10-08T17:21:47.731Z,14.96
2022-10-08T17:24:15.768Z,14.93
2022-10-08T17:26:43.790Z,14.89
2022-10-08T17:29:12.923Z,14.89
2022-10-08T17:31:41.962Z,14.97
2022-10-08T17:34:11.512Z,15.03
2022-10-08T17:36:42.709Z,15.08
2022-10-08T17:39:14.204Z,15.10
2022-10-08T17:41:43.386Z,15.13
2022-10-08T17:44:12.058Z,15.17
2022-10-08T17:46:47.316Z,15.19
2022-10-08T17:49:18.695Z,15.21
2022-10-08T17:51:48.143Z,15.24
2022-10-08T17:54:19.732Z,15.27
2022-10-08T17:56:48.497Z,15.31
2022-10-08T17:59:23.937Z,15.34
2022-10-08T18:01:52.259Z,15.36
2022-10-08T18:04:20.676Z,15.38
2022-10-08T18:06:49.105Z,15.40
2022-10-08T18:09:20.677Z,15.40
2022-10-08T18:11:53.224Z,15.38
2022-10-08T18:14:22.571Z,15.36
2022-10-08T18:16:50.990Z,15.35
2022-10-08T18:19:19.690Z,15.34
2022-10-08T18:21:48.258Z,15.33
2022-10-08T18:24:17.782Z,15.33
2022-10-08T18:26:45.972Z,15.32
2022-10-08T18:29:14.770Z,15.32
2022-10-08T18:31:44.258Z,15.31
2022-10-08T18:34:17.240Z,15.31
2022-10-08T18:36:45.690Z,15.31
2022-10-08T18:39:17.312Z,15.29
2022-10-08T18:41:51.015Z,15.28
2022-10-08T18:44:23.545Z,15.27
2022-10-08T18:46:52.768Z,15.23
2022-10-08T18:49:30.288Z,15.20
2022-10-08T18:51:59.469Z,15.18
2022-10-08T18:54:27.729Z,15.16
2022-10-08T18:56:56.845Z,15.15
2022-10-08T18:59:24.898Z,15.14
2022-10-08T19:01:57.016Z,15.12
2022-10-08T19:04:27.678Z,15.11
2022-10-08T19:06:56.008Z,15.10
2022-10-08T19:09:24.109Z,15.09
2022-10-08T19:11:53.932Z,15.07
2022-10-08T19:14:23.340Z,15.05
2022-10-08T19:16:51.956Z,15.04
2022-10-08T19:19:24.400Z,15.01
2022-10-08T19:21:54.302Z,14.94
2022-10-08T19:24:25.099Z,14.87
2022-10-08T19:26:54.628Z,14.80
2022-10-08T19:29:28.784Z,14.73
2022-10-08T19:31:57.512Z,14.65
2022-10-08T19:34:27.699Z,14.58
2022-10-08T19:36:56.385Z,14.51
2022-10-08T19:39:28.417Z,14.46
2022-10-08T19:41:56.996Z,14.41
2022-10-08T19:44:25.895Z,14.36
2022-10-08T19:46:54.105Z,14.32
2022-10-08T19:49:23.119Z,14.29
2022-10-08T19:51:51.159Z,14.25
2022-10-08T19:54:19.226Z,14.20
2022-10-08T19:56:47.504Z,14.15
2022-10-08T19:59:15.797Z,14.10
2022-10-08T20:01:45.098Z,14.05
2022-10-08T20:04:14.072Z,13.99
2022-10-08T20:06:43.383Z,13.96
2022-10-08T20:09:13.128Z,13.91
2022-10-08T20:11:43.540Z,13.87
2022-10-08T20:14:13.524Z,13.82
2022-10-08T20:16:43.358Z,13.78
2022-10-08T20:19:21.317Z,13.72
2022-10-08T20:21:51.097Z,13.64
2022-10-08T20:24:19.732Z,13.57
2022-10-08T20:26:49.173Z,13.54
2022-10-08T20:29:20.677Z,13.50
2022-10-08T20:31:54.160Z,13.46
2022-10-08T20:34:28.827Z,13.42
2022-10-08T20:36:59.118Z,13.36
2022-10-08T20:39:27.352Z,13.31
2022-10-08T20:41:56.191Z,13.28
2022-10-08T20:44:24.211Z,13.24
2022-10-08T20:46:52.312Z,13.19
2022-10-08T20:49:20.636Z,13.16
2022-10-08T20:51:48.840Z,13.13
2022-10-08T20:54:17.518Z,13.12
2022-10-08T20:56:45.810Z,13.11
2022-10-08T20:59:18.728Z,13.09
2022-10-08T21:01:49.073Z,13.07
2022-10-08T21:04:19.730Z,13.02
2022-10-08T21:06:50.369Z,12.98
2022-10-08T21:09:21.581Z,12.95
2022-10-08T21:11:49.812Z,12.92
2022-10-08T21:14:22.452Z,12.91
2022-10-08T21:16:50.481Z,12.88
2022-10-08T21:19:22.046Z,12.83
2022-10-08T21:21:50.420Z,12.80
2022-10-08T21:24:18.630Z,12.78
2022-10-08T21:26:46.648Z,12.77
2022-10-08T21:29:15.310Z,12.75
2022-10-08T21:31:43.521Z,12.73
2022-10-08T21:34:13.196Z,12.71
2022-10-08T21:36:42.331Z,12.67
2022-10-08T21:39:17.393Z,12.64
2022-10-08T21:41:46.065Z,12.61
2022-10-08T21:44:14.813Z,12.56
2022-10-08T21:46:43.174Z,12.55
2022-10-08T21:49:24.018Z,12.56
2022-10-08T21:51:52.434Z,12.63
2022-10-08T21:54:20.553Z,12.65
2022-10-08T21:56:48.587Z,12.65
2022-10-08T21:59:17.049Z,12.64
2022-10-08T22:01:50.860Z,12.63
2022-10-08T22:04:24.022Z,12.63
2022-10-08T22:06:57.737Z,12.63
2022-10-08T22:09:29.196Z,12.62
2022-10-08T22:11:59.054Z,12.62
2022-10-08T22:14:27.402Z,12.61
2022-10-08T22:16:55.802Z,12.61
2022-10-08T22:19:23.920Z,12.62
2022-10-08T22:21:51.916Z,12.64
2022-10-08T22:24:19.912Z,12.64
2022-10-08T22:26:48.340Z,12.65
2022-10-08T22:29:16.857Z,12.64
2022-10-08T22:31:45.621Z,12.61
2022-10-08T22:34:13.815Z,12.61
2022-10-08T22:36:43.879Z,12.61
2022-10-08T22:39:12.496Z,12.58
2022-10-08T22:41:40.617Z,12.57
2022-10-08T22:44:08.690Z,12.57
2022-10-08T22:46:39.362Z,12.54
2022-10-08T22:49:12.492Z,12.56
2022-10-08T22:51:41.078Z,12.56
2022-10-08T22:54:10.129Z,12.57
2022-10-08T22:56:38.354Z,12.57
2022-10-08T22:59:06.845Z,12.55
2022-10-08T23:01:34.876Z,12.53
2022-10-08T23:04:02.894Z,12.51
2022-10-08T23:06:33.339Z,12.50
2022-10-08T23:09:07.835Z,12.48
2022-10-08T23:11:36.055Z,12.45
2022-10-08T23:14:05.255Z,12.42
2022-10-08T23:16:34.262Z,12.42
2022-10-08T23:19:08.988Z,12.39
2022-10-08T23:21:38.135Z,12.37
2022-10-08T23:24:06.641Z,12.37
2022-10-08T23:26:36.290Z,12.36
2022-10-08T23:29:05.039Z,12.35
2022-10-08T23:31:36.047Z,12.37
2022-10-08T23:34:06.558Z,12.37
2022-10-08T23:36:45.461Z,12.37
2022-10-08T23:39:16.566Z,12.41
2022-10-08T23:41:44.748Z,12.42
2022-10-08T23:44:13.521Z,12.38
2022-10-08T23:46:41.606Z,12.38
2022-10-08T23:49:09.652Z,12.35
2022-10-08T23:51:37.723Z,12.33
2022-10-08T23:54:06.382Z,12.30
2022-10-08T23:56:34.896Z,12.27
2022-10-08T23:59:03.224Z,12.24
